sensor_id;sensor_type;location;lat;lon;timestamp;P1;durP1;ratioP1;P2;durP2;ratioP2
57029;SDS011;42920;45.306;20.448;2023-07-28T00:00:21;6.07;;;4.28;;
57029;SDS011;42920;45.306;20.448;2023-07-28T00:02:46;8.60;;;3.78;;
57029;SDS011;42920;45.306;20.448;2023-07-28T00:05:12;6.55;;;4.28;;
57029;SDS011;42920;45.306;20.448;2023-07-28T00:07:38;7.22;;;3.40;;
57029;SDS011;42920;45.306;20.448;2023-07-28T00:10:03;6.47;;;3.90;;
57029;SDS011;42920;45.306;20.448;2023-07-28T00:12:29;7.28;;;4.57;;
57029;SDS011;42920;45.306;20.448;2023-07-28T00:14:55;5.90;;;3.80;;
57029;SDS011;42920;45.306;20.448;2023-07-28T00:17:21;7.82;;;3.92;;
57029;SDS011;42920;45.306;20.448;2023-07-28T00:19:47;7.22;;;3.95;;
57029;SDS011;42920;45.306;20.448;2023-07-28T00:22:13;9.18;;;3.78;;
57029;SDS011;42920;45.306;20.448;2023-07-28T00:24:38;5.70;;;3.70;;
57029;SDS011;42920;45.306;20.448;2023-07-28T00:27:04;5.78;;;3.55;;
57029;SDS011;42920;45.306;20.448;2023-07-28T00:29:30;5.57;;;3.53;;
57029;SDS011;42920;45.306;20.448;2023-07-28T00:31:56;7.90;;;4.68;;
57029;SDS011;42920;45.306;20.448;2023-07-28T00:34:21;8.73;;;4.63;;
57029;SDS011;42920;45.306;20.448;2023-07-28T00:36:47;5.95;;;4.00;;
57029;SDS011;42920;45.306;20.448;2023-07-28T00:39:13;8.27;;;3.78;;
57029;SDS011;42920;45.306;20.448;2023-07-28T00:41:38;8.85;;;3.38;;
57029;SDS011;42920;45.306;20.448;2023-07-28T00:44:04;9.30;;;3.90;;
57029;SDS011;42920;45.306;20.448;2023-07-28T00:46:30;5.53;;;3.78;;
57029;SDS011;42920;45.306;20.448;2023-07-28T00:48:56;8.32;;;4.18;;
57029;SDS011;42920;45.306;20.448;2023-07-28T00:51:22;7.32;;;3.38;;
57029;SDS011;42920;45.306;20.448;2023-07-28T00:53:47;8.18;;;4.47;;
57029;SDS011;42920;45.306;20.448;2023-07-28T00:56:13;7.05;;;4.03;;
57029;SDS011;42920;45.306;20.448;2023-07-28T00:58:40;6.72;;;4.40;;
57029;SDS011;42920;45.306;20.448;2023-07-28T01:01:05;6.90;;;4.07;;
57029;SDS011;42920;45.306;20.448;2023-07-28T01:03:31;8.50;;;4.18;;
57029;SDS011;42920;45.306;20.448;2023-07-28T01:08:42;6.38;;;3.88;;
57029;SDS011;42920;45.306;20.448;2023-07-28T01:11:17;6.13;;;4.05;;
57029;SDS011;42920;45.306;20.448;2023-07-28T01:13:43;6.80;;;4.10;;
57029;SDS011;42920;45.306;20.448;2023-07-28T01:16:08;8.13;;;4.40;;
57029;SDS011;42920;45.306;20.448;2023-07-28T01:18:34;6.95;;;4.07;;
57029;SDS011;42920;45.306;20.448;2023-07-28T01:21:00;6.53;;;4.60;;
57029;SDS011;42920;45.306;20.448;2023-07-28T01:26:17;8.18;;;4.63;;
57029;SDS011;42920;45.306;20.448;2023-07-28T01:28:56;9.40;;;5.32;;
57029;SDS011;42920;45.306;20.448;2023-07-28T01:31:22;9.85;;;5.75;;
57029;SDS011;42920;45.306;20.448;2023-07-28T01:33:48;9.30;;;6.18;;
57029;SDS011;42920;45.306;20.448;2023-07-28T01:36:13;11.05;;;5.72;;
57029;SDS011;42920;45.306;20.448;2023-07-28T01:38:39;8.25;;;6.10;;
57029;SDS011;42920;45.306;20.448;2023-07-28T01:41:05;12.30;;;6.30;;
57029;SDS011;42920;45.306;20.448;2023-07-28T01:43:31;9.65;;;6.47;;
57029;SDS011;42920;45.306;20.448;2023-07-28T01:45:56;9.98;;;6.35;;
57029;SDS011;42920;45.306;20.448;2023-07-28T01:48:22;10.65;;;6.70;;
57029;SDS011;42920;45.306;20.448;2023-07-28T01:50:48;11.23;;;6.50;;
57029;SDS011;42920;45.306;20.448;2023-07-28T01:53:13;12.80;;;6.47;;
57029;SDS011;42920;45.306;20.448;2023-07-28T01:55:39;11.68;;;7.55;;
57029;SDS011;42920;45.306;20.448;2023-07-28T01:58:05;12.13;;;7.70;;
57029;SDS011;42920;45.306;20.448;2023-07-28T02:00:31;13.95;;;8.85;;
57029;SDS011;42920;45.306;20.448;2023-07-28T02:02:56;13.77;;;9.48;;
57029;SDS011;42920;45.306;20.448;2023-07-28T02:05:23;12.00;;;8.75;;
57029;SDS011;42920;45.306;20.448;2023-07-28T02:07:49;16.10;;;9.38;;
57029;SDS011;42920;45.306;20.448;2023-07-28T02:10:15;15.45;;;9.27;;
57029;SDS011;42920;45.306;20.448;2023-07-28T02:12:41;20.70;;;10.30;;
57029;SDS011;42920;45.306;20.448;2023-07-28T02:15:07;13.88;;;9.70;;
57029;SDS011;42920;45.306;20.448;2023-07-28T02:17:33;18.23;;;10.05;;
57029;SDS011;42920;45.306;20.448;2023-07-28T02:19:59;15.93;;;10.13;;
57029;SDS011;42920;45.306;20.448;2023-07-28T02:22:26;20.40;;;10.88;;
57029;SDS011;42920;45.306;20.448;2023-07-28T02:24:51;14.05;;;10.25;;
57029;SDS011;42920;45.306;20.448;2023-07-28T02:27:17;15.43;;;9.68;;
57029;SDS011;42920;45.306;20.448;2023-07-28T02:29:43;14.23;;;9.27;;
57029;SDS011;42920;45.306;20.448;2023-07-28T02:32:09;15.77;;;9.57;;
57029;SDS011;42920;45.306;20.448;2023-07-28T02:34:34;16.23;;;10.18;;
57029;SDS011;42920;45.306;20.448;2023-07-28T02:37:00;13.43;;;8.93;;
57029;SDS011;42920;45.306;20.448;2023-07-28T02:39:26;15.93;;;9.23;;
57029;SDS011;42920;45.306;20.448;2023-07-28T02:41:51;10.52;;;8.43;;
57029;SDS011;42920;45.306;20.448;2023-07-28T02:44:17;17.83;;;8.85;;
57029;SDS011;42920;45.306;20.448;2023-07-28T02:46:43;16.17;;;10.20;;
57029;SDS011;42920;45.306;20.448;2023-07-28T02:49:08;14.98;;;9.52;;
57029;SDS011;42920;45.306;20.448;2023-07-28T02:51:34;14.10;;;8.80;;
57029;SDS011;42920;45.306;20.448;2023-07-28T02:54:00;17.88;;;9.65;;
57029;SDS011;42920;45.306;20.448;2023-07-28T02:56:26;15.32;;;10.75;;
57029;SDS011;42920;45.306;20.448;2023-07-28T02:58:51;16.08;;;10.07;;
57029;SDS011;42920;45.306;20.448;2023-07-28T03:01:17;15.40;;;10.50;;
57029;SDS011;42920;45.306;20.448;2023-07-28T03:03:43;19.02;;;9.60;;
57029;SDS011;42920;45.306;20.448;2023-07-28T03:06:09;15.82;;;10.02;;
57029;SDS011;42920;45.306;20.448;2023-07-28T03:08:35;14.43;;;9.07;;
57029;SDS011;42920;45.306;20.448;2023-07-28T03:11:01;11.93;;;9.05;;
57029;SDS011;42920;45.306;20.448;2023-07-28T03:13:29;15.98;;;8.73;;
57029;SDS011;42920;45.306;20.448;2023-07-28T03:15:55;19.80;;;9.43;;
57029;SDS011;42920;45.306;20.448;2023-07-28T03:18:20;13.43;;;8.80;;
57029;SDS011;42920;45.306;20.448;2023-07-28T03:20:46;11.23;;;8.48;;
57029;SDS011;42920;45.306;20.448;2023-07-28T03:23:12;13.38;;;8.43;;
57029;SDS011;42920;45.306;20.448;2023-07-28T03:25:39;17.27;;;8.27;;
57029;SDS011;42920;45.306;20.448;2023-07-28T03:28:04;12.30;;;7.85;;
57029;SDS011;42920;45.306;20.448;2023-07-28T03:30:30;11.57;;;7.25;;
57029;SDS011;42920;45.306;20.448;2023-07-28T03:32:56;12.25;;;7.97;;
57029;SDS011;42920;45.306;20.448;2023-07-28T03:35:21;10.00;;;7.40;;
57029;SDS011;42920;45.306;20.448;2023-07-28T03:37:47;18.52;;;8.65;;
57029;SDS011;42920;45.306;20.448;2023-07-28T03:40:13;10.27;;;7.28;;
57029;SDS011;42920;45.306;20.448;2023-07-28T03:42:39;13.05;;;6.40;;
57029;SDS011;42920;45.306;20.448;2023-07-28T03:45:05;12.25;;;7.60;;
57029;SDS011;42920;45.306;20.448;2023-07-28T03:47:31;14.57;;;6.82;;
57029;SDS011;42920;45.306;20.448;2023-07-28T03:49:56;12.43;;;7.25;;
57029;SDS011;42920;45.306;20.448;2023-07-28T03:52:22;11.50;;;6.55;;
57029;SDS011;42920;45.306;20.448;2023-07-28T03:54:48;11.02;;;7.47;;
57029;SDS011;42920;45.306;20.448;2023-07-28T03:57:13;12.90;;;7.10;;
57029;SDS011;42920;45.306;20.448;2023-07-28T03:59:39;12.45;;;8.48;;
57029;SDS011;42920;45.306;20.448;2023-07-28T04:02:05;9.48;;;6.50;;
57029;SDS011;42920;45.306;20.448;2023-07-28T04:04:31;12.20;;;6.85;;
57029;SDS011;42920;45.306;20.448;2023-07-28T04:06:56;10.02;;;6.97;;
57029;SDS011;42920;45.306;20.448;2023-07-28T04:09:22;12.63;;;7.18;;
57029;SDS011;42920;45.306;20.448;2023-07-28T04:11:48;10.90;;;6.78;;
57029;SDS011;42920;45.306;20.448;2023-07-28T04:14:14;12.77;;;7.03;;
57029;SDS011;42920;45.306;20.448;2023-07-28T04:16:40;9.68;;;6.35;;
57029;SDS011;42920;45.306;20.448;2023-07-28T04:19:05;13.80;;;7.38;;
57029;SDS011;42920;45.306;20.448;2023-07-28T04:21:31;10.07;;;6.43;;
57029;SDS011;42920;45.306;20.448;2023-07-28T04:23:57;9.20;;;6.53;;
57029;SDS011;42920;45.306;20.448;2023-07-28T04:26:25;10.73;;;7.00;;
57029;SDS011;42920;45.306;20.448;2023-07-28T04:28:51;10.48;;;6.20;;
57029;SDS011;42920;45.306;20.448;2023-07-28T04:31:17;11.27;;;6.28;;
57029;SDS011;42920;45.306;20.448;2023-07-28T04:33:43;9.02;;;6.55;;
57029;SDS011;42920;45.306;20.448;2023-07-28T04:36:09;13.68;;;6.75;;
57029;SDS011;42920;45.306;20.448;2023-07-28T04:38:34;10.48;;;7.00;;
57029;SDS011;42920;45.306;20.448;2023-07-28T04:41:00;14.00;;;6.55;;
57029;SDS011;42920;45.306;20.448;2023-07-28T04:43:26;12.48;;;6.72;;
57029;SDS011;42920;45.306;20.448;2023-07-28T04:45:52;14.52;;;6.38;;
57029;SDS011;42920;45.306;20.448;2023-07-28T04:48:18;11.13;;;6.70;;
57029;SDS011;42920;45.306;20.448;2023-07-28T04:50:44;11.98;;;7.05;;
57029;SDS011;42920;45.306;20.448;2023-07-28T04:53:10;10.57;;;7.32;;
57029;SDS011;42920;45.306;20.448;2023-07-28T04:55:36;12.55;;;7.07;;
57029;SDS011;42920;45.306;20.448;2023-07-28T04:58:01;11.18;;;6.25;;
57029;SDS011;42920;45.306;20.448;2023-07-28T05:00:27;9.73;;;6.50;;
57029;SDS011;42920;45.306;20.448;2023-07-28T05:02:53;15.38;;;8.73;;
57029;SDS011;42920;45.306;20.448;2023-07-28T05:05:19;9.65;;;6.85;;
57029;SDS011;42920;45.306;20.448;2023-07-28T05:07:45;13.35;;;6.85;;
57029;SDS011;42920;45.306;20.448;2023-07-28T05:10:10;12.23;;;7.30;;
57029;SDS011;42920;45.306;20.448;2023-07-28T05:12:36;12.07;;;7.25;;
57029;SDS011;42920;45.306;20.448;2023-07-28T05:15:02;13.82;;;7.55;;
57029;SDS011;42920;45.306;20.448;2023-07-28T05:17:28;11.45;;;6.78;;
57029;SDS011;42920;45.306;20.448;2023-07-28T05:19:53;11.73;;;7.35;;
57029;SDS011;42920;45.306;20.448;2023-07-28T05:22:19;10.07;;;7.13;;
57029;SDS011;42920;45.306;20.448;2023-07-28T05:24:45;11.50;;;7.28;;
57029;SDS011;42920;45.306;20.448;2023-07-28T05:27:11;10.52;;;6.90;;
57029;SDS011;42920;45.306;20.448;2023-07-28T05:29:37;10.73;;;7.20;;
57029;SDS011;42920;45.306;20.448;2023-07-28T05:32:03;11.13;;;6.65;;
57029;SDS011;42920;45.306;20.448;2023-07-28T05:34:29;13.43;;;7.05;;
57029;SDS011;42920;45.306;20.448;2023-07-28T05:36:55;9.45;;;6.10;;
57029;SDS011;42920;45.306;20.448;2023-07-28T05:39:21;9.15;;;5.68;;
57029;SDS011;42920;45.306;20.448;2023-07-28T05:41:47;10.65;;;6.30;;
57029;SDS011;42920;45.306;20.448;2023-07-28T05:44:12;8.85;;;5.47;;
57029;SDS011;42920;45.306;20.448;2023-07-28T05:46:38;9.82;;;6.75;;
57029;SDS011;42920;45.306;20.448;2023-07-28T05:49:04;11.25;;;7.25;;
57029;SDS011;42920;45.306;20.448;2023-07-28T05:51:30;15.10;;;6.50;;
57029;SDS011;42920;45.306;20.448;2023-07-28T05:53:56;11.75;;;6.10;;
57029;SDS011;42920;45.306;20.448;2023-07-28T05:56:21;8.45;;;6.70;;
57029;SDS011;42920;45.306;20.448;2023-07-28T05:58:48;9.55;;;4.47;;
57029;SDS011;42920;45.306;20.448;2023-07-28T06:01:14;7.82;;;4.65;;
57029;SDS011;42920;45.306;20.448;2023-07-28T06:03:39;7.28;;;5.75;;
57029;SDS011;42920;45.306;20.448;2023-07-28T06:06:05;7.65;;;4.50;;
57029;SDS011;42920;45.306;20.448;2023-07-28T06:08:32;7.38;;;4.80;;
57029;SDS011;42920;45.306;20.448;2023-07-28T06:10:58;9.13;;;4.38;;
57029;SDS011;42920;45.306;20.448;2023-07-28T06:13:23;8.77;;;4.18;;
57029;SDS011;42920;45.306;20.448;2023-07-28T06:15:49;11.20;;;4.82;;
57029;SDS011;42920;45.306;20.448;2023-07-28T06:18:15;6.57;;;4.22;;
57029;SDS011;42920;45.306;20.448;2023-07-28T06:20:44;6.03;;;4.18;;
57029;SDS011;42920;45.306;20.448;2023-07-28T06:23:10;8.70;;;4.55;;
57029;SDS011;42920;45.306;20.448;2023-07-28T06:25:36;7.13;;;3.80;;
57029;SDS011;42920;45.306;20.448;2023-07-28T06:28:07;9.35;;;4.50;;
57029;SDS011;42920;45.306;20.448;2023-07-28T06:30:33;5.25;;;3.88;;
57029;SDS011;42920;45.306;20.448;2023-07-28T06:32:59;6.68;;;3.70;;
57029;SDS011;42920;45.306;20.448;2023-07-28T06:35:24;7.20;;;4.00;;
57029;SDS011;42920;45.306;20.448;2023-07-28T06:37:50;6.72;;;3.88;;
57029;SDS011;42920;45.306;20.448;2023-07-28T06:40:15;7.03;;;3.60;;
57029;SDS011;42920;45.306;20.448;2023-07-28T06:42:41;7.68;;;3.92;;
57029;SDS011;42920;45.306;20.448;2023-07-28T06:45:07;4.82;;;3.65;;
57029;SDS011;42920;45.306;20.448;2023-07-28T06:47:33;10.40;;;4.43;;
57029;SDS011;42920;45.306;20.448;2023-07-28T06:49:59;5.88;;;3.63;;
57029;SDS011;42920;45.306;20.448;2023-07-28T06:52:25;5.50;;;2.97;;
57029;SDS011;42920;45.306;20.448;2023-07-28T06:54:50;5.60;;;3.15;;
57029;SDS011;42920;45.306;20.448;2023-07-28T06:57:16;5.82;;;3.15;;
57029;SDS011;42920;45.306;20.448;2023-07-28T06:59:42;4.85;;;2.78;;
57029;SDS011;42920;45.306;20.448;2023-07-28T07:02:08;6.50;;;2.92;;
57029;SDS011;42920;45.306;20.448;2023-07-28T07:04:34;6.82;;;3.85;;
57029;SDS011;42920;45.306;20.448;2023-07-28T07:07:00;5.38;;;3.15;;
57029;SDS011;42920;45.306;20.448;2023-07-28T07:09:27;5.45;;;3.17;;
57029;SDS011;42920;45.306;20.448;2023-07-28T07:11:53;8.73;;;2.90;;
57029;SDS011;42920;45.306;20.448;2023-07-28T07:14:19;7.80;;;3.47;;
57029;SDS011;42920;45.306;20.448;2023-07-28T07:16:45;5.18;;;3.17;;
57029;SDS011;42920;45.306;20.448;2023-07-28T07:19:10;7.35;;;3.85;;
57029;SDS011;42920;45.306;20.448;2023-07-28T07:21:36;3.78;;;2.97;;
57029;SDS011;42920;45.306;20.448;2023-07-28T07:24:02;4.00;;;2.78;;
57029;SDS011;42920;45.306;20.448;2023-07-28T07:26:29;8.48;;;3.35;;
57029;SDS011;42920;45.306;20.448;2023-07-28T07:28:56;7.38;;;3.20;;
57029;SDS011;42920;45.306;20.448;2023-07-28T07:31:22;4.20;;;2.70;;
57029;SDS011;42920;45.306;20.448;2023-07-28T07:33:48;4.13;;;2.70;;
57029;SDS011;42920;45.306;20.448;2023-07-28T07:36:15;5.68;;;2.65;;
57029;SDS011;42920;45.306;20.448;2023-07-28T07:38:42;4.18;;;2.53;;
57029;SDS011;42920;45.306;20.448;2023-07-28T07:41:11;5.13;;;2.65;;
57029;SDS011;42920;45.306;20.448;2023-07-28T07:43:38;10.00;;;3.20;;
57029;SDS011;42920;45.306;20.448;2023-07-28T07:46:04;4.25;;;3.03;;
57029;SDS011;42920;45.306;20.448;2023-07-28T07:48:30;6.80;;;3.40;;
57029;SDS011;42920;45.306;20.448;2023-07-28T07:50:55;8.77;;;3.42;;
57029;SDS011;42920;45.306;20.448;2023-07-28T07:53:21;9.23;;;2.97;;
57029;SDS011;42920;45.306;20.448;2023-07-28T07:55:47;8.30;;;3.83;;
57029;SDS011;42920;45.306;20.448;2023-07-28T07:58:14;5.35;;;3.03;;
57029;SDS011;42920;45.306;20.448;2023-07-28T08:00:39;6.38;;;3.50;;
57029;SDS011;42920;45.306;20.448;2023-07-28T08:03:05;6.32;;;2.80;;
57029;SDS011;42920;45.306;20.448;2023-07-28T08:05:31;5.40;;;2.55;;
57029;SDS011;42920;45.306;20.448;2023-07-28T08:07:57;4.45;;;3.33;;
57029;SDS011;42920;45.306;20.448;2023-07-28T08:10:22;4.97;;;2.33;;
57029;SDS011;42920;45.306;20.448;2023-07-28T08:12:48;5.47;;;2.72;;
57029;SDS011;42920;45.306;20.448;2023-07-28T08:15:14;6.03;;;3.50;;
57029;SDS011;42920;45.306;20.448;2023-07-28T08:17:40;5.55;;;3.22;;
57029;SDS011;42920;45.306;20.448;2023-07-28T08:20:08;6.30;;;3.20;;
57029;SDS011;42920;45.306;20.448;2023-07-28T08:22:34;7.00;;;3.08;;
57029;SDS011;42920;45.306;20.448;2023-07-28T08:25:00;5.05;;;2.75;;
57029;SDS011;42920;45.306;20.448;2023-07-28T08:27:26;5.93;;;2.67;;
57029;SDS011;42920;45.306;20.448;2023-07-28T08:29:51;4.85;;;2.55;;
57029;SDS011;42920;45.306;20.448;2023-07-28T08:32:17;4.18;;;2.33;;
57029;SDS011;42920;45.306;20.448;2023-07-28T08:34:43;5.95;;;2.85;;
57029;SDS011;42920;45.306;20.448;2023-07-28T08:37:08;6.28;;;3.33;;
57029;SDS011;42920;45.306;20.448;2023-07-28T08:39:34;7.03;;;3.25;;
57029;SDS011;42920;45.306;20.448;2023-07-28T08:42:00;4.60;;;2.72;;
57029;SDS011;42920;45.306;20.448;2023-07-28T08:44:30;4.18;;;2.90;;
57029;SDS011;42920;45.306;20.448;2023-07-28T08:46:58;5.05;;;3.15;;
57029;SDS011;42920;45.306;20.448;2023-07-28T08:49:28;13.27;;;2.90;;
57029;SDS011;42920;45.306;20.448;2023-07-28T08:51:57;4.72;;;3.53;;
57029;SDS011;42920;45.306;20.448;2023-07-28T08:54:24;7.15;;;2.35;;
57029;SDS011;42920;45.306;20.448;2023-07-28T08:56:50;4.82;;;2.90;;
57029;SDS011;42920;45.306;20.448;2023-07-28T08:59:22;7.40;;;2.92;;
57029;SDS011;42920;45.306;20.448;2023-07-28T09:01:50;4.20;;;2.40;;
57029;SDS011;42920;45.306;20.448;2023-07-28T09:04:23;5.53;;;2.70;;
57029;SDS011;42920;45.306;20.448;2023-07-28T09:06:50;5.80;;;2.63;;
57029;SDS011;42920;45.306;20.448;2023-07-28T09:09:17;5.32;;;2.92;;
57029;SDS011;42920;45.306;20.448;2023-07-28T09:11:44;4.72;;;2.42;;
57029;SDS011;42920;45.306;20.448;2023-07-28T09:14:17;3.40;;;2.30;;
57029;SDS011;42920;45.306;20.448;2023-07-28T09:16:44;4.40;;;2.75;;
57029;SDS011;42920;45.306;20.448;2023-07-28T09:19:10;3.67;;;2.33;;
57029;SDS011;42920;45.306;20.448;2023-07-28T09:21:41;3.28;;;2.55;;
57029;SDS011;42920;45.306;20.448;2023-07-28T09:24:11;5.97;;;2.42;;
57029;SDS011;42920;45.306;20.448;2023-07-28T09:26:42;4.93;;;2.50;;
57029;SDS011;42920;45.306;20.448;2023-07-28T09:29:13;5.65;;;2.72;;
57029;SDS011;42920;45.306;20.448;2023-07-28T09:31:40;6.10;;;2.17;;
57029;SDS011;42920;45.306;20.448;2023-07-28T09:34:07;8.07;;;2.88;;
57029;SDS011;42920;45.306;20.448;2023-07-28T09:36:34;4.50;;;2.45;;
57029;SDS011;42920;45.306;20.448;2023-07-28T09:39:00;5.13;;;2.80;;
57029;SDS011;42920;45.306;20.448;2023-07-28T09:41:28;9.32;;;3.65;;
57029;SDS011;42920;45.306;20.448;2023-07-28T09:43:55;5.88;;;3.00;;
57029;SDS011;42920;45.306;20.448;2023-07-28T09:46:22;8.13;;;2.50;;
57029;SDS011;42920;45.306;20.448;2023-07-28T09:48:50;5.60;;;2.70;;
57029;SDS011;42920;45.306;20.448;2023-07-28T09:51:20;5.93;;;2.78;;
57029;SDS011;42920;45.306;20.448;2023-07-28T09:53:58;3.15;;;2.17;;
57029;SDS011;42920;45.306;20.448;2023-07-28T09:56:30;3.67;;;2.38;;
57029;SDS011;42920;45.306;20.448;2023-07-28T09:58:57;4.47;;;2.55;;
57029;SDS011;42920;45.306;20.448;2023-07-28T10:01:24;4.63;;;2.58;;
57029;SDS011;42920;45.306;20.448;2023-07-28T10:03:50;5.28;;;3.17;;
57029;SDS011;42920;45.306;20.448;2023-07-28T10:06:17;4.13;;;2.60;;
57029;SDS011;42920;45.306;20.448;2023-07-28T10:08:44;8.32;;;2.72;;
57029;SDS011;42920;45.306;20.448;2023-07-28T10:11:14;3.55;;;2.60;;
57029;SDS011;42920;45.306;20.448;2023-07-28T10:13:42;4.05;;;2.30;;
57029;SDS011;42920;45.306;20.448;2023-07-28T10:16:09;7.60;;;3.00;;
57029;SDS011;42920;45.306;20.448;2023-07-28T10:18:36;3.90;;;2.65;;
57029;SDS011;42920;45.306;20.448;2023-07-28T10:21:06;5.47;;;2.40;;
57029;SDS011;42920;45.306;20.448;2023-07-28T10:23:35;4.68;;;2.45;;
57029;SDS011;42920;45.306;20.448;2023-07-28T10:26:03;5.50;;;2.58;;
57029;SDS011;42920;45.306;20.448;2023-07-28T10:28:35;3.88;;;2.30;;
57029;SDS011;42920;45.306;20.448;2023-07-28T10:31:07;4.47;;;2.65;;
57029;SDS011;42920;45.306;20.448;2023-07-28T10:33:39;4.07;;;2.55;;
57029;SDS011;42920;45.306;20.448;2023-07-28T10:36:10;5.13;;;2.78;;
57029;SDS011;42920;45.306;20.448;2023-07-28T10:39:00;6.53;;;2.65;;
57029;SDS011;42920;45.306;20.448;2023-07-28T10:41:36;8.20;;;2.92;;
57029;SDS011;42920;45.306;20.448;2023-07-28T10:44:03;3.40;;;2.38;;
57029;SDS011;42920;45.306;20.448;2023-07-28T10:46:28;4.53;;;2.40;;
57029;SDS011;42920;45.306;20.448;2023-07-28T10:48:54;5.88;;;2.55;;
57029;SDS011;42920;45.306;20.448;2023-07-28T10:51:24;3.20;;;2.20;;
57029;SDS011;42920;45.306;20.448;2023-07-28T10:53:54;3.42;;;2.25;;
57029;SDS011;42920;45.306;20.448;2023-07-28T10:56:21;4.70;;;2.72;;
57029;SDS011;42920;45.306;20.448;2023-07-28T10:58:47;4.50;;;2.47;;
57029;SDS011;42920;45.306;20.448;2023-07-28T11:01:31;4.72;;;2.72;;
57029;SDS011;42920;45.306;20.448;2023-07-28T11:04:10;6.43;;;3.00;;
57029;SDS011;42920;45.306;20.448;2023-07-28T11:06:49;4.28;;;2.78;;
57029;SDS011;42920;45.306;20.448;2023-07-28T11:09:16;7.95;;;2.67;;
57029;SDS011;42920;45.306;20.448;2023-07-28T11:11:43;10.45;;;5.65;;
57029;SDS011;42920;45.306;20.448;2023-07-28T11:14:10;32.05;;;19.25;;
57029;SDS011;42920;45.306;20.448;2023-07-28T11:16:37;6.53;;;3.80;;
57029;SDS011;42920;45.306;20.448;2023-07-28T11:19:10;4.57;;;2.53;;
57029;SDS011;42920;45.306;20.448;2023-07-28T11:21:41;5.40;;;2.72;;
57029;SDS011;42920;45.306;20.448;2023-07-28T11:24:08;4.22;;;2.45;;
57029;SDS011;42920;45.306;20.448;2023-07-28T11:26:42;3.40;;;2.42;;
57029;SDS011;42920;45.306;20.448;2023-07-28T11:29:11;4.00;;;2.50;;
57029;SDS011;42920;45.306;20.448;2023-07-28T11:31:37;5.28;;;2.65;;
57029;SDS011;42920;45.306;20.448;2023-07-28T11:34:02;3.55;;;2.40;;
57029;SDS011;42920;45.306;20.448;2023-07-28T11:36:37;3.58;;;2.15;;
57029;SDS011;42920;45.306;20.448;2023-07-28T11:39:03;5.45;;;2.70;;
57029;SDS011;42920;45.306;20.448;2023-07-28T11:41:30;5.38;;;2.53;;
57029;SDS011;42920;45.306;20.448;2023-07-28T11:43:58;3.33;;;2.33;;
57029;SDS011;42920;45.306;20.448;2023-07-28T11:46:36;3.28;;;2.50;;
57029;SDS011;42920;45.306;20.448;2023-07-28T11:51:38;4.70;;;2.28;;
57029;SDS011;42920;45.306;20.448;2023-07-28T11:54:08;7.93;;;2.55;;
57029;SDS011;42920;45.306;20.448;2023-07-28T11:56:36;4.00;;;2.35;;
57029;SDS011;42920;45.306;20.448;2023-07-28T11:59:02;5.07;;;2.63;;
57029;SDS011;42920;45.306;20.448;2023-07-28T12:01:29;4.57;;;2.47;;
57029;SDS011;42920;45.306;20.448;2023-07-28T12:03:54;8.68;;;2.72;;
57029;SDS011;42920;45.306;20.448;2023-07-28T12:06:20;5.93;;;2.70;;
57029;SDS011;42920;45.306;20.448;2023-07-28T12:08:46;11.35;;;2.92;;
57029;SDS011;42920;45.306;20.448;2023-07-28T12:11:13;6.22;;;2.97;;
57029;SDS011;42920;45.306;20.448;2023-07-28T12:13:49;4.80;;;2.60;;
57029;SDS011;42920;45.306;20.448;2023-07-28T12:19:03;4.97;;;2.80;;
57029;SDS011;42920;45.306;20.448;2023-07-28T12:21:29;5.93;;;2.72;;
57029;SDS011;42920;45.306;20.448;2023-07-28T12:23:56;10.70;;;6.53;;
57029;SDS011;42920;45.306;20.448;2023-07-28T12:26:22;7.63;;;3.15;;
57029;SDS011;42920;45.306;20.448;2023-07-28T12:28:47;6.03;;;2.88;;
57029;SDS011;42920;45.306;20.448;2023-07-28T12:31:13;4.85;;;2.53;;
57029;SDS011;42920;45.306;20.448;2023-07-28T12:33:39;4.15;;;2.65;;
57029;SDS011;42920;45.306;20.448;2023-07-28T12:36:04;6.53;;;2.88;;
57029;SDS011;42920;45.306;20.448;2023-07-28T12:38:31;4.97;;;2.40;;
57029;SDS011;42920;45.306;20.448;2023-07-28T12:40:56;5.70;;;2.85;;
57029;SDS011;42920;45.306;20.448;2023-07-28T12:43:22;4.82;;;2.53;;
57029;SDS011;42920;45.306;20.448;2023-07-28T12:45:50;4.93;;;2.67;;
57029;SDS011;42920;45.306;20.448;2023-07-28T12:48:16;3.05;;;2.38;;
57029;SDS011;42920;45.306;20.448;2023-07-28T12:50:41;3.58;;;2.55;;
57029;SDS011;42920;45.306;20.448;2023-07-28T12:53:07;5.47;;;2.20;;
57029;SDS011;42920;45.306;20.448;2023-07-28T12:55:32;5.45;;;2.53;;
57029;SDS011;42920;45.306;20.448;2023-07-28T12:58:00;4.20;;;2.88;;
57029;SDS011;42920;45.306;20.448;2023-07-28T13:00:25;5.20;;;2.70;;
57029;SDS011;42920;45.306;20.448;2023-07-28T13:02:51;3.60;;;2.40;;
57029;SDS011;42920;45.306;20.448;2023-07-28T13:05:17;4.55;;;2.60;;
57029;SDS011;42920;45.306;20.448;2023-07-28T13:07:42;6.18;;;2.80;;
57029;SDS011;42920;45.306;20.448;2023-07-28T13:10:09;4.45;;;2.58;;
57029;SDS011;42920;45.306;20.448;2023-07-28T13:12:36;4.10;;;2.38;;
57029;SDS011;42920;45.306;20.448;2023-07-28T13:15:02;4.10;;;2.67;;
57029;SDS011;42920;45.306;20.448;2023-07-28T13:17:28;4.38;;;2.55;;
57029;SDS011;42920;45.306;20.448;2023-07-28T13:19:53;4.55;;;2.40;;
57029;SDS011;42920;45.306;20.448;2023-07-28T13:22:19;7.65;;;2.50;;
57029;SDS011;42920;45.306;20.448;2023-07-28T13:24:45;5.22;;;2.97;;
57029;SDS011;42920;45.306;20.448;2023-07-28T13:27:10;4.45;;;2.45;;
57029;SDS011;42920;45.306;20.448;2023-07-28T13:29:36;4.82;;;3.00;;
57029;SDS011;42920;45.306;20.448;2023-07-28T13:32:02;7.07;;;3.97;;
57029;SDS011;42920;45.306;20.448;2023-07-28T13:34:28;10.30;;;5.85;;
57029;SDS011;42920;45.306;20.448;2023-07-28T13:36:54;4.57;;;3.10;;
57029;SDS011;42920;45.306;20.448;2023-07-28T13:39:22;3.95;;;2.97;;
57029;SDS011;42920;45.306;20.448;2023-07-28T13:41:48;4.80;;;2.60;;
57029;SDS011;42920;45.306;20.448;2023-07-28T13:44:14;3.35;;;2.13;;
57029;SDS011;42920;45.306;20.448;2023-07-28T13:46:40;4.60;;;2.85;;
57029;SDS011;42920;45.306;20.448;2023-07-28T13:49:06;7.35;;;3.30;;
57029;SDS011;42920;45.306;20.448;2023-07-28T13:51:32;6.85;;;3.03;;
57029;SDS011;42920;45.306;20.448;2023-07-28T13:53:57;5.13;;;2.53;;
57029;SDS011;42920;45.306;20.448;2023-07-28T13:56:23;4.05;;;2.53;;
57029;SDS011;42920;45.306;20.448;2023-07-28T13:58:49;5.18;;;2.22;;
57029;SDS011;42920;45.306;20.448;2023-07-28T14:01:14;3.88;;;2.47;;
57029;SDS011;42920;45.306;20.448;2023-07-28T14:03:40;5.47;;;2.17;;
57029;SDS011;42920;45.306;20.448;2023-07-28T14:06:06;5.78;;;2.72;;
57029;SDS011;42920;45.306;20.448;2023-07-28T14:08:32;8.93;;;2.13;;
57029;SDS011;42920;45.306;20.448;2023-07-28T14:10:58;5.68;;;2.30;;
57029;SDS011;42920;45.306;20.448;2023-07-28T14:13:23;4.15;;;2.50;;
57029;SDS011;42920;45.306;20.448;2023-07-28T14:15:49;4.13;;;2.33;;
57029;SDS011;42920;45.306;20.448;2023-07-28T14:18:16;6.80;;;2.40;;
57029;SDS011;42920;45.306;20.448;2023-07-28T14:20:42;4.03;;;2.67;;
57029;SDS011;42920;45.306;20.448;2023-07-28T14:23:21;4.20;;;2.53;;
57029;SDS011;42920;45.306;20.448;2023-07-28T14:25:48;4.07;;;2.50;;
57029;SDS011;42920;45.306;20.448;2023-07-28T14:28:14;5.45;;;2.35;;
57029;SDS011;42920;45.306;20.448;2023-07-28T14:30:40;3.13;;;1.92;;
57029;SDS011;42920;45.306;20.448;2023-07-28T14:33:08;6.32;;;2.28;;
57029;SDS011;42920;45.306;20.448;2023-07-28T14:35:34;5.10;;;2.20;;
57029;SDS011;42920;45.306;20.448;2023-07-28T14:37:59;5.07;;;2.25;;